Friday, January 19, 2018, 1:45 AM GMT
Back to Local

CYQB, Quebec, Que

Location: , , Canada Lat: 46.8
Local Time: 1:45 AM GMT ( 1:45 GMT) Lon: -71.383
Time Zone: GMT Elev: 229 ft

Show me the last for .
Show Coded

Time T Td Feel RH Dir Speed Gust Alt SLP Vis Weather Sky Remarks
2018-01-19 01:00 21 18 10 85 240° 10 - 29.85 29.87 6 -SN SCT043 None
2018-01-19 00:00 23 19 14 85 240° 8 - 29.86 29.88 6 -SN FEW036 BKN046 None
2018-01-18 23:00 23 19 14 85 240° 8 - 29.86 29.88 6 -SN FEW020 BKN045 None
2018-01-18 22:00 23 19 12 85 240° 10 - 29.85 29.87 6 -SN FEW022 BKN045 None
2018-01-18 21:00 23 19 11 85 240° 13 - 29.84 29.86 5 -SN BKN020 OVC042 None
2018-01-18 20:00 25 19 14 79 240° 12 - 29.83 29.85 4 -SN BKN016 OVC026 None
2018-01-18 19:00 25 18 14 73 240° 12 - 29.83 29.85 9 -SN BKN017 OVC027 None
2018-01-18 18:00 23 18 11 79 250° 14 - 29.82 29.84 10 -SN BKN022 BKN056 None
2018-01-18 17:00 23 18 8 79 260° 15 22 29.83 29.85 10 -SN DRSN SCT019 BKN060 None
2018-01-18 16:00 23 18 9 79 260° 18 - 29.84 29.86 8 -SN DRSN SCT020 BKN055 OVC062 None
2018-01-18 15:00 21 18 8 85 240° 15 - 29.85 29.87 8 -SN SCT016 BKN065 None
2018-01-18 14:00 21 18 8 85 240° 15 - 29.84 29.86 4 -SN DRSN BKN016 OVC070 None
2018-01-18 13:52 21 18 8 85 240° 15 - 29.85 29.87 4 -SN BKN017 OVC070 None
2018-01-18 13:20 19 18 4 92 240° 14 20 29.84 29.86 1 -SN DRSN BKN018 BKN038 None
2018-01-18 13:00 19 18 6 92 240° 14 - 29.84 29.86 1 -SN VV016 None
2018-01-18 12:48 19 18 6 92 240° 14 - 29.84 29.86 1 -SN VV015 None
2018-01-18 12:00 19 16 4 85 240° 12 18 29.85 29.87 1 -SN VV014 None
2018-01-18 11:30 19 16 4 85 240° 12 18 29.85 29.87 1 -SN VV014 None
2018-01-18 11:20 19 16 6 85 240° 14 - 29.84 29.86 1 -SN VV014 None
2018-01-18 11:00 19 16 4 85 240° 12 20 29.85 29.87 5 -SN OVC014 None
2018-01-18 10:00 19 16 8 85 240° 10 - 29.86 29.88 6 -SN SCT013 OVC015 None
2018-01-18 09:00 19 14 7 79 240° 13 - 29.87 29.89 8 -SN DRSN FEW012 OVC017 None
2018-01-18 08:00 19 14 3 79 240° 14 22 29.90 29.92 8 -SN DRSN OVC018 None
2018-01-18 07:00 19 14 7 79 230° 12 - 29.91 29.93 8 -SN BKN018 None
2018-01-18 06:00 18 12 4 78 230° 13 - 29.92 29.95 7 -SN OVC018 None
2018-01-18 05:20 18 12 6 78 230° 9 - 29.95 29.97 7 -SN BKN021 None
2018-01-18 05:00 18 12 6 78 230° 9 - 29.96 29.98 7 FEW013 BKN024 None
2018-01-18 04:53 18 12 6 78 230° 10 - 29.96 29.98 7 FEW013 BKN024 None
2018-01-18 04:00 16 12 6 85 230° 7 - 29.99 30.01 7 -SN FEW013 BKN023 None
2018-01-18 03:32 16 12 7 85 230° 6 - 29.99 30.01 8 -SN BKN024 None
2018-01-18 03:00 14 10 5 85 240° 6 - 30.01 30.03 8 BKN023 OVC110 None
2018-01-18 02:00 10 9 2 92 250° 5 - 30.04 30.06 7 SCT013 BKN026 BKN110 None

Support USWX by starting your Amazon purchase here.